Time;durP1;ratioP1;P1;durP2;ratioP2;P2;SDS_P1;SDS_P2;PMS_P1;PMS_P2;Temp;Humidity;BMP_temperature;BMP_pressure;BME280_temperature;BME280_humidity;BME280_pressure;Samples;Min_cycle;Max_cycle;Signal;HPM_P1;HPM_P2
2023/05/10 00:01:31;;;;;;;0.52;0.52;;;;;;;13.59;51.48;96812.38;5050161;28;20489;-67
2023/05/10 00:03:58;;;;;;;0.68;0.68;;;;;;;13.57;51.60;96817.16;5048224;28;20037;-67
2023/05/10 00:06:26;;;;;;;0.57;0.57;;;;;;;13.57;51.40;96819.00;5037570;28;20076;-67
2023/05/10 00:08:54;;;;;;;0.40;0.40;;;;;;;13.64;51.37;96816.22;5048158;28;20044;-67
2023/05/10 00:11:22;;;;;;;0.60;0.60;;;;;;;13.55;51.50;96810.38;5053016;28;20041;-67
2023/05/10 00:13:50;;;;;;;0.57;0.57;;;;;;;13.50;51.74;96808.38;5049680;28;20072;-67
2023/05/10 00:16:20;;;;;;;0.68;0.68;;;;;;;13.39;52.27;96811.88;5044988;28;20488;-67
2023/05/10 00:18:48;;;;;;;0.68;0.68;;;;;;;13.34;52.68;96814.44;5047180;28;20040;-67
2023/05/10 00:21:15;;;;;;;0.93;0.93;;;;;;;13.20;53.16;96818.38;5051075;28;20075;-67
2023/05/10 00:23:43;;;;;;;0.52;0.52;;;;;;;13.06;53.79;96811.56;5047332;28;20151;-67
2023/05/10 00:26:10;;;;;;;0.40;0.40;;;;;;;12.95;54.00;96812.34;5044457;28;20049;-67
2023/05/10 00:28:41;;;;;;;0.60;0.60;;;;;;;12.95;53.94;96809.69;5047326;28;20040;-67
2023/05/10 00:31:08;;;;;;;0.50;0.50;;;;;;;12.99;53.92;96810.84;5048438;28;20041;-67
2023/05/10 00:33:36;;;;;;;0.50;0.50;;;;;;;12.95;53.97;96805.13;5052206;28;20032;-67
2023/05/10 00:36:04;;;;;;;0.52;0.52;;;;;;;13.05;54.02;96804.56;5044245;28;20049;-67
2023/05/10 00:38:31;;;;;;;0.52;0.52;;;;;;;13.04;53.98;96800.25;5051000;28;20041;-68
2023/05/10 00:40:59;;;;;;;0.10;0.10;;;;;;;12.94;54.31;96786.63;5047835;28;20462;-68
2023/05/10 00:43:30;;;;;;;0.55;0.55;;;;;;;12.95;54.38;96789.06;5050779;28;20539;-67
2023/05/10 00:46:00;;;;;;;0.55;0.55;;;;;;;12.96;54.25;96793.38;5067668;28;20099;-68
2023/05/10 00:48:29;;;;;;;0.70;0.70;;;;;;;12.93;54.21;96790.34;5051718;28;20055;-68
2023/05/10 00:50:57;;;;;;;0.60;0.60;;;;;;;12.82;54.81;96790.06;5053262;28;20048;-68
2023/05/10 00:53:25;;;;;;;0.93;0.93;;;;;;;12.79;54.78;96790.53;5051646;28;20083;-67
2023/05/10 00:55:52;;;;;;;0.45;0.45;;;;;;;12.92;54.66;96783.34;5039759;28;20052;-67
2023/05/10 00:58:20;;;;;;;0.50;0.50;;;;;;;12.93;54.43;96780.44;5047448;28;20041;-67
2023/05/10 01:00:48;;;;;;;0.60;0.60;;;;;;;12.97;54.32;96784.31;5051111;28;20211;-67
2023/05/10 01:03:17;;;;;;;0.50;0.50;;;;;;;12.88;54.52;96789.16;5048893;28;20163;-68
2023/05/10 01:05:45;;;;;;;0.20;0.20;;;;;;;12.87;54.75;96782.16;5058036;28;20405;-67
2023/05/10 01:08:13;;;;;;;0.60;0.60;;;;;;;12.88;54.65;96782.97;5040051;28;20048;-67
2023/05/10 01:10:40;;;;;;;0.50;0.50;;;;;;;13.02;54.34;96780.91;5045211;28;20046;-67
2023/05/10 01:13:08;;;;;;;0.43;0.43;;;;;;;12.93;54.54;96780.44;5041213;28;20049;-67
2023/05/10 01:15:36;;;;;;;0.50;0.50;;;;;;;12.92;54.60;96776.13;5040613;28;20037;-67
2023/05/10 01:18:04;;;;;;;0.60;0.60;;;;;;;12.91;54.73;96771.00;5065113;28;20052;-68
2023/05/10 01:20:37;;;;;;;0.70;0.70;;;;;;;12.94;54.65;96776.72;5049516;28;20086;-67
2023/05/10 01:23:25;;;;;;;0.50;0.50;;;;;;;12.91;54.67;96771.00;5045522;28;20042;-67
2023/05/10 01:26:08;;;;;;;0.57;0.57;;;;;;;12.76;55.36;96768.75;5048248;28;20037;-67
2023/05/10 01:28:52;;;;;;;0.52;0.52;;;;;;;12.66;56.20;96773.84;5043032;28;20045;-67
2023/05/10 01:31:24;;;;;;;;;;;;;;;12.73;55.54;96770.03;5067908;28;20045;-68
2023/05/10 01:33:56;;;;;;;0.10;0.10;;;;;;;12.77;55.66;96771.19;5047261;28;20517;-67
2023/05/10 01:36:28;;;;;;;1.17;1.17;;;;;;;12.82;55.75;96754.44;5045810;28;20057;-67
2023/05/10 01:39:00;;;;;;;0.65;0.65;;;;;;;12.71;55.95;96760.59;5051054;28;20103;-69
2023/05/10 01:41:34;;;;;;;0.43;0.43;;;;;;;12.70;56.26;96758.94;5049243;28;20400;-68
2023/05/10 01:44:05;;;;;;;0.60;0.60;;;;;;;12.74;56.13;96752.91;5051569;28;20055;-70
2023/05/10 01:46:36;;;;;;;0.60;0.60;;;;;;;12.77;56.07;96752.44;5036127;28;20099;-66
2023/05/10 01:49:10;;;;;;;0.40;0.40;;;;;;;12.74;56.41;96755.59;5047955;28;20052;-67
2023/05/10 01:51:40;;;;;;;0.10;0.10;;;;;;;12.64;56.53;96752.66;5041219;28;20443;-67
2023/05/10 01:54:09;;;;;;;0.60;0.60;;;;;;;12.66;56.49;96760.47;5049709;28;20037;-67
2023/05/10 01:56:38;;;;;;;0.57;0.57;;;;;;;12.67;56.44;96765.56;5035374;28;20037;-67
2023/05/10 01:59:10;;;;;;;0.50;0.50;;;;;;;12.69;56.46;96762.66;5046255;28;20512;-69
2023/05/10 02:01:38;;;;;;;0.55;0.55;;;;;;;12.61;56.72;96749.59;5049879;28;20094;-67
2023/05/10 02:04:08;;;;;;;0.47;0.47;;;;;;;12.65;56.65;96758.84;5049452;28;20381;-67
2023/05/10 02:06:36;;;;;;;0.50;0.50;;;;;;;12.64;56.71;96757.19;5039707;28;20033;-67
2023/05/10 02:09:05;;;;;;;0.35;0.35;;;;;;;12.68;56.66;96756.50;5046981;28;20053;-67
2023/05/10 02:11:33;;;;;;;0.20;0.20;;;;;;;12.70;56.58;96758.94;5046855;28;20461;-67
2023/05/10 02:14:01;;;;;;;0.20;0.20;;;;;;;12.69;56.71;96757.31;5046634;28;20443;-68
2023/05/10 02:16:30;;;;;;;0.52;0.52;;;;;;;12.70;56.87;96761.63;5038889;28;20098;-67
2023/05/10 02:19:00;;;;;;;0.85;0.85;;;;;;;12.68;56.80;96761.03;5045376;28;20064;-67
2023/05/10 02:21:29;;;;;;;0.50;0.50;;;;;;;12.68;56.77;96758.34;5047621;28;20052;-67
2023/05/10 02:23:58;;;;;;;0.55;0.55;;;;;;;12.71;56.67;96761.41;5049009;28;20060;-67
2023/05/10 02:26:26;;;;;;;0.57;0.57;;;;;;;12.71;56.78;96761.41;5039703;28;20057;-67
2023/05/10 02:28:54;;;;;;;0.70;0.70;;;;;;;12.58;57.22;96761.59;5050318;28;20045;-66
2023/05/10 02:31:22;;;;;;;0.43;0.43;;;;;;;12.58;56.97;96756.22;5044374;28;20091;-67
2023/05/10 02:33:51;;;;;;;0.77;0.77;;;;;;;12.62;57.07;96760.09;5064921;28;20049;-69
2023/05/10 02:36:21;;;;;;;0.60;0.60;;;;;;;12.69;56.73;96765.34;5042048;28;20079;-69
2023/05/10 02:38:50;;;;;;;0.10;0.10;;;;;;;12.72;56.65;96771.06;5048300;28;20470;-68
2023/05/10 02:41:19;;;;;;;0.55;0.55;;;;;;;12.69;56.73;96765.34;5050164;28;20460;-69
2023/05/10 02:43:48;;;;;;;0.10;0.10;;;;;;;12.59;57.11;96765.06;5047016;28;20420;-68
2023/05/10 02:46:15;;;;;;;0.40;0.40;;;;;;;12.58;57.00;96764.25;5048561;28;20115;-69
2023/05/10 02:48:43;;;;;;;0.68;0.68;;;;;;;12.62;57.08;96762.78;5045251;28;20045;-69
2023/05/10 02:51:13;;;;;;;0.70;0.70;;;;;;;12.64;57.04;96759.88;5049896;28;20044;-68
2023/05/10 02:53:42;;;;;;;0.50;0.50;;;;;;;12.58;57.23;96758.09;5045376;28;20071;-69
2023/05/10 02:56:14;;;;;;;0.50;0.50;;;;;;;12.59;57.12;96759.72;5047457;28;20067;-68
2023/05/10 02:58:42;;;;;;;0.57;0.57;;;;;;;12.58;57.42;96750.88;5036204;28;20049;-68
2023/05/10 03:01:10;;;;;;;0.50;0.50;;;;;;;12.49;57.35;96757.59;5049022;28;20057;-68
2023/05/10 03:03:38;;;;;;;0.80;0.80;;;;;;;12.51;57.46;96752.84;5047309;28;20522;-68
2023/05/10 03:06:06;;;;;;;0.93;0.93;;;;;;;12.49;57.54;96754.91;5045006;28;20037;-68
2023/05/10 03:08:34;;;;;;;0.43;0.43;;;;;;;12.54;57.58;96748.91;5042788;28;20041;-69
2023/05/10 03:11:22;;;;;;;0.60;0.60;;;;;;;12.49;57.64;96752.25;5040065;28;20057;-67
2023/05/10 03:13:57;;;;;;;0.52;0.52;;;;;;;12.47;57.59;96757.00;5066169;28;20045;-68
2023/05/10 03:16:28;;;;;;;0.10;0.10;;;;;;;12.49;57.53;96755.75;5043882;28;20462;-68
2023/05/10 03:19:03;;;;;;;0.57;0.57;;;;;;;12.58;57.12;96748.19;5046834;28;20098;-68
2023/05/10 03:21:31;;;;;;;0.50;0.50;;;;;;;12.61;56.97;96744.25;5049836;28;20103;-68
2023/05/10 03:24:06;;;;;;;0.47;0.47;;;;;;;12.65;56.81;96745.44;5046077;28;20128;-68
2023/05/10 03:26:37;;;;;;;0.63;0.63;;;;;;;12.67;56.95;96743.31;5047911;28;20061;-68
2023/05/10 03:29:11;;;;;;;0.63;0.63;;;;;;;12.63;56.97;96745.66;5064900;28;20496;-68
2023/05/10 03:31:39;;;;;;;0.55;0.55;;;;;;;12.64;57.01;96744.63;5042144;28;20071;-67
2023/05/10 03:34:07;;;;;;;0.50;0.50;;;;;;;12.56;57.31;96746.81;5044621;28;20087;-68
2023/05/10 03:36:34;;;;;;;0.55;0.55;;;;;;;12.52;57.48;96740.28;5045377;28;20041;-67
2023/05/10 03:39:02;;;;;;;0.93;0.93;;;;;;;12.49;57.55;96745.03;5069017;28;20072;-67
2023/05/10 03:41:30;;;;;;;0.45;0.45;;;;;;;12.62;57.04;96738.69;5058563;28;20096;-68
2023/05/10 03:43:59;;;;;;;0.60;0.60;;;;;;;12.49;57.30;96744.22;5041614;28;20045;-68
2023/05/10 03:46:28;;;;;;;0.70;0.70;;;;;;;12.47;57.60;96743.63;5051975;28;20068;-68
2023/05/10 03:48:56;;;;;;;0.10;0.10;;;;;;;12.42;57.87;96749.66;5044693;28;20408;-68
2023/05/10 03:51:27;;;;;;;0.52;0.52;;;;;;;12.42;57.60;96743.50;5042142;28;20045;-69
2023/05/10 03:53:55;;;;;;;0.45;0.45;;;;;;;12.41;57.67;96744.53;5042899;28;20111;-69
2023/05/10 03:56:23;;;;;;;0.43;0.43;;;;;;;12.38;57.93;96755.69;5054423;28;20100;-68
2023/05/10 03:58:50;;;;;;;0.65;0.65;;;;;;;12.31;58.38;96746.94;5050018;28;20037;-69
2023/05/10 04:01:19;;;;;;;0.60;0.60;;;;;;;12.39;58.09;96755.47;5047599;28;20041;-69
2023/05/10 04:03:47;;;;;;;0.68;0.68;;;;;;;12.36;58.04;96749.75;5046868;28;20087;-69
2023/05/10 04:06:14;;;;;;;0.65;0.65;;;;;;;12.35;58.39;96743.59;5039758;28;20246;-69
2023/05/10 04:08:42;;;;;;;0.57;0.57;;;;;;;12.32;58.57;96746.72;5046244;28;20359;-69
2023/05/10 04:11:11;;;;;;;0.47;0.47;;;;;;;12.34;58.25;96754.53;5044590;28;20041;-69
2023/05/10 04:13:38;;;;;;;0.15;0.15;;;;;;;12.29;58.51;96747.16;5044014;28;20420;-69
2023/05/10 04:16:06;;;;;;;0.60;0.60;;;;;;;12.31;58.36;96754.97;5052660;28;20052;-69
2023/05/10 04:18:35;;;;;;;0.60;0.60;;;;;;;12.39;58.20;96760.81;5048323;28;20046;-69
2023/05/10 04:21:03;;;;;;;0.50;0.50;;;;;;;12.31;58.34;96754.97;5051948;28;20389;-68
2023/05/10 04:23:30;;;;;;;0.50;0.50;;;;;;;12.30;58.56;96747.97;5045488;28;20407;-69
2023/05/10 04:26:01;;;;;;;0.68;0.68;;;;;;;12.26;58.81;96749.47;5048553;28;20037;-69
2023/05/10 04:28:29;;;;;;;0.75;0.75;;;;;;;12.21;58.89;96752.84;5052167;28;20514;-69
2023/05/10 04:31:02;;;;;;;0.50;0.50;;;;;;;12.24;58.89;96757.75;5049246;28;20402;-69
2023/05/10 04:33:29;;;;;;;0.63;0.63;;;;;;;12.18;59.05;96763.97;5044764;28;20044;-69
2023/05/10 04:35:58;;;;;;;0.40;0.40;;;;;;;12.18;58.96;96760.47;5050345;28;20029;-69
2023/05/10 04:38:26;;;;;;;0.60;0.60;;;;;;;12.17;59.06;96748.97;5047749;28;20060;-69
2023/05/10 04:40:54;;;;;;;0.60;0.60;;;;;;;12.18;59.17;96753.28;5052556;28;20068;-70
2023/05/10 04:43:22;;;;;;;0.60;0.60;;;;;;;12.13;59.18;96766.53;5050648;28;20052;-69
2023/05/10 04:45:50;;;;;;;0.80;0.80;;;;;;;12.13;59.29;96761.19;5041724;28;20085;-69
2023/05/10 04:48:17;;;;;;;0.80;0.80;;;;;;;12.04;59.55;96757.97;5043495;28;20304;-71
2023/05/10 04:50:45;;;;;;;0.60;0.60;;;;;;;12.13;59.53;96758.50;5050362;28;20095;-69
2023/05/10 04:53:13;;;;;;;0.63;0.63;;;;;;;12.16;59.25;96757.22;5045461;28;20080;-71
2023/05/10 04:55:42;;;;;;;0.20;0.20;;;;;;;12.21;59.34;96760.88;5041579;28;20424;-71
2023/05/10 04:58:10;;;;;;;0.65;0.65;;;;;;;12.22;59.06;96767.03;5043353;28;20045;-71
2023/05/10 05:00:37;;;;;;;0.60;0.60;;;;;;;12.27;59.12;96769.81;5043139;28;20049;-71
2023/05/10 05:03:05;;;;;;;0.10;0.10;;;;;;;12.32;59.04;96773.47;5048211;28;20427;-71
2023/05/10 05:05:32;;;;;;;0.50;0.50;;;;;;;12.37;59.07;96767.44;5044039;28;20508;-71
2023/05/10 05:08:00;;;;;;;0.52;0.52;;;;;;;12.37;59.07;96770.94;5051786;28;20041;-71
2023/05/10 05:10:29;;;;;;;0.40;0.40;;;;;;;12.40;58.77;96775.84;5050955;28;20048;-70
2023/05/10 05:12:57;;;;;;;0.68;0.68;;;;;;;12.50;58.45;96776.09;5051950;28;20134;-70
2023/05/10 05:15:24;;;;;;;0.55;0.55;;;;;;;12.50;58.72;96769.94;5052292;28;20041;-69
2023/05/10 05:17:52;;;;;;;0.57;0.57;;;;;;;12.48;58.41;96778.19;5048677;28;20053;-68
2023/05/10 05:20:19;;;;;;;0.60;0.60;;;;;;;12.55;58.60;96778.13;5044360;28;20477;-68
2023/05/10 05:22:47;;;;;;;1.00;1.00;;;;;;;12.60;58.55;96788.94;5051642;28;20499;-68
2023/05/10 05:25:15;;;;;;;0.50;0.50;;;;;;;12.49;58.99;96779.00;5051182;28;20033;-72
2023/05/10 05:27:44;;;;;;;0.55;0.55;;;;;;;12.58;58.43;96785.69;5051979;28;20041;-69
2023/05/10 05:30:12;;;;;;;0.45;0.45;;;;;;;12.65;58.60;96780.25;5050600;28;20041;-70
2023/05/10 05:32:39;;;;;;;0.43;0.43;;;;;;;12.56;58.63;96782.44;5052072;28;20457;-70
2023/05/10 05:35:08;;;;;;;0.20;0.20;;;;;;;12.59;58.80;96781.97;5045712;28;20146;-70
2023/05/10 05:37:37;;;;;;;0.63;0.63;;;;;;;12.66;58.88;96779.22;5048046;28;20045;-69
2023/05/10 05:40:05;;;;;;;0.77;0.77;;;;;;;12.62;58.84;96792.22;5051582;28;20067;-69
2023/05/10 05:42:33;;;;;;;0.52;0.52;;;;;;;12.70;58.83;96788.41;5038404;28;20459;-69
2023/05/10 05:45:02;;;;;;;0.50;0.50;;;;;;;12.73;58.49;96780.72;5043677;28;20041;-69
2023/05/10 05:47:29;;;;;;;0.63;0.63;;;;;;;12.68;58.84;96785.13;5047498;28;20041;-69
2023/05/10 05:49:57;;;;;;;0.50;0.50;;;;;;;12.61;58.96;96797.78;5048598;28;20123;-69
2023/05/10 05:52:24;;;;;;;0.60;0.60;;;;;;;12.67;59.11;96794.19;5051849;28;20045;-69
2023/05/10 05:54:52;;;;;;;0.60;0.60;;;;;;;12.66;59.05;96796.09;5047512;28;20045;-69
2023/05/10 05:57:20;;;;;;;0.57;0.57;;;;;;;12.62;59.04;96807.47;5049816;28;20100;-69
2023/05/10 05:59:47;;;;;;;0.80;0.80;;;;;;;12.64;59.34;96802.72;5046707;28;20037;-69
2023/05/10 06:02:16;;;;;;;0.60;0.60;;;;;;;12.64;59.68;96818.78;5048916;28;20045;-69
2023/05/10 06:04:44;;;;;;;0.60;0.60;;;;;;;12.58;59.72;96814.31;5051544;28;20106;-69
2023/05/10 06:07:11;;;;;;;0.40;0.40;;;;;;;12.48;60.45;96831.72;5048642;28;20036;-70
2023/05/10 06:09:39;;;;;;;0.50;0.50;;;;;;;12.51;61.11;96833.13;5051190;28;20115;-69
2023/05/10 06:12:06;;;;;;;0.50;0.50;;;;;;;12.29;62.55;96838.13;5047905;28;20099;-69
2023/05/10 06:14:34;;;;;;;0.70;0.70;;;;;;;12.24;63.89;96843.38;5051097;28;20106;-71
2023/05/10 06:17:03;;;;;;;0.52;0.52;;;;;;;12.10;64.73;96844.53;5039260;28;20034;-71
2023/05/10 06:19:34;;;;;;;0.73;0.73;;;;;;;12.00;65.73;96846.91;5049430;28;20076;-68
2023/05/10 06:22:02;;;;;;;0.50;0.50;;;;;;;11.96;66.25;96854.56;5039842;28;20045;-69
2023/05/10 06:24:29;;;;;;;0.47;0.47;;;;;;;11.93;67.00;96857.69;5049757;28;20063;-68
2023/05/10 06:26:59;;;;;;;0.47;0.47;;;;;;;11.84;68.40;96858.16;5048902;28;20037;-69
2023/05/10 06:29:27;;;;;;;0.52;0.52;;;;;;;11.73;69.69;96867.72;5045119;28;20041;-69
2023/05/10 06:31:55;;;;;;;0.68;0.68;;;;;;;11.54;70.65;96866.03;5051924;28;20043;-68
2023/05/10 06:34:22;;;;;;;0.20;0.20;;;;;;;11.49;71.74;96868.53;5051841;28;20458;-68
2023/05/10 06:36:51;;;;;;;0.50;0.50;;;;;;;11.51;72.29;96872.66;5047980;28;20725;-69
2023/05/10 06:39:19;;;;;;;0.60;0.60;;;;;;;11.44;72.93;96877.19;5047736;28;20041;-69
2023/05/10 06:41:47;;;;;;;0.60;0.60;;;;;;;11.48;74.17;96885.63;5046843;28;20150;-69
2023/05/10 06:44:14;;;;;;;0.50;0.50;;;;;;;11.35;73.87;96882.00;5048469;28;20037;-68
2023/05/10 06:46:42;;;;;;;0.52;0.52;;;;;;;11.28;74.30;96889.25;5057881;28;20036;-68
2023/05/10 06:49:09;;;;;;;0.55;0.55;;;;;;;11.22;75.91;96890.09;5063489;28;20535;-69
2023/05/10 06:51:37;;;;;;;0.60;0.60;;;;;;;11.20;76.35;96892.19;5060961;28;20044;-69
2023/05/10 06:54:06;;;;;;;0.52;0.52;;;;;;;11.23;76.26;96899.75;5053643;28;20439;-68
2023/05/10 06:56:34;;;;;;;0.60;0.60;;;;;;;11.24;75.72;96893.38;5055832;28;20041;-69
2023/05/10 06:59:01;;;;;;;0.60;0.60;;;;;;;11.18;76.49;96899.59;5052773;28;20045;-68
2023/05/10 07:01:29;;;;;;;0.63;0.63;;;;;;;11.18;76.88;96904.13;5055006;28;20049;-68
2023/05/10 07:03:56;;;;;;;0.50;0.50;;;;;;;11.30;77.17;96905.06;5057587;28;20033;-69
2023/05/10 07:06:24;;;;;;;0.55;0.55;;;;;;;11.30;77.04;96903.22;5053876;28;20055;-69
2023/05/10 07:09:00;;;;;;;0.60;0.60;;;;;;;11.29;76.92;96906.94;5056745;28;20059;-70
2023/05/10 07:11:29;;;;;;;0.70;0.70;;;;;;;11.34;78.17;96908.94;5053420;28;20047;-69
2023/05/10 07:13:56;;;;;;;0.68;0.68;;;;;;;11.37;76.45;96908.50;5055661;28;20135;-69
2023/05/10 07:16:24;;;;;;;0.50;0.50;;;;;;;11.30;77.00;96910.41;5052153;28;20045;-69
2023/05/10 07:18:53;;;;;;;0.60;0.60;;;;;;;11.20;76.56;96902.88;5055042;28;20045;-68
2023/05/10 07:21:20;;;;;;;0.60;0.60;;;;;;;11.15;78.38;96918.72;5057359;28;20056;-69
2023/05/10 07:23:48;;;;;;;0.73;0.73;;;;;;;11.27;76.69;96911.66;5055186;28;20155;-69
2023/05/10 07:26:16;;;;;;;0.50;0.50;;;;;;;11.29;76.77;96919.47;5056784;28;20048;-69
2023/05/10 07:28:44;;;;;;;0.63;0.63;;;;;;;11.13;77.06;96922.63;5053136;28;20044;-69
2023/05/10 07:31:12;;;;;;;0.60;0.60;;;;;;;11.23;78.70;96923.78;5055547;28;20075;-69
2023/05/10 07:33:39;;;;;;;0.65;0.65;;;;;;;11.22;78.25;96918.66;5055998;28;20037;-68
2023/05/10 07:36:07;;;;;;;0.63;0.63;;;;;;;11.18;78.76;96920.97;5050201;28;20107;-69
2023/05/10 07:38:35;;;;;;;0.68;0.68;;;;;;;11.09;78.16;96914.25;5049439;28;20040;-69
2023/05/10 07:41:05;;;;;;;0.70;0.70;;;;;;;11.05;79.45;96921.03;5053908;28;20092;-69
2023/05/10 07:43:33;;;;;;;0.63;0.63;;;;;;;11.13;79.36;96918.09;5072468;28;20059;-69
2023/05/10 07:46:02;;;;;;;0.65;0.65;;;;;;;11.12;78.69;96927.16;5054256;28;20048;-69
2023/05/10 07:48:30;;;;;;;0.40;0.40;;;;;;;11.10;78.69;96923.91;5053055;28;20049;-69
2023/05/10 07:50:57;;;;;;;0.40;0.40;;;;;;;11.12;79.14;96927.16;5056052;28;20110;-69
2023/05/10 07:53:26;;;;;;;0.52;0.52;;;;;;;11.26;80.02;96928.72;5055373;28;20064;-69
2023/05/10 07:55:55;;;;;;;0.80;0.80;;;;;;;11.37;78.92;96929.88;5053975;28;20131;-70
2023/05/10 07:58:23;;;;;;;0.40;0.40;;;;;;;11.35;78.49;96929.28;5051964;28;20040;-69
2023/05/10 08:00:50;;;;;;;0.50;0.50;;;;;;;11.27;78.75;96930.34;5051007;28;20044;-70
2023/05/10 08:03:19;;;;;;;0.50;0.50;;;;;;;11.25;78.28;96927.06;5055752;28;20090;-69
2023/05/10 08:05:47;;;;;;;0.50;0.50;;;;;;;11.27;79.64;96932.22;5050402;28;20037;-70
2023/05/10 08:08:16;;;;;;;0.57;0.57;;;;;;;11.22;78.42;96932.03;5055539;28;20041;-69
2023/05/10 08:10:43;;;;;;;0.65;0.65;;;;;;;11.21;80.38;96925.84;5050546;28;20045;-69
2023/05/10 08:13:11;;;;;;;0.65;0.65;;;;;;;11.26;78.97;96927.91;5057440;28;20041;-69
2023/05/10 08:15:38;;;;;;;0.20;0.20;;;;;;;11.42;79.02;96926.56;5047384;28;20451;-69
2023/05/10 08:18:06;;;;;;;0.85;0.85;;;;;;;11.46;79.40;96939.28;5056742;28;20029;-69
2023/05/10 08:20:35;;;;;;;0.57;0.57;;;;;;;11.49;80.10;96933.50;5055666;28;20060;-70
2023/05/10 08:23:03;;;;;;;0.68;0.68;;;;;;;11.59;80.22;96931.16;5051807;28;20084;-70
2023/05/10 08:25:30;;;;;;;0.60;0.60;;;;;;;11.62;78.41;96932.59;5052755;28;20053;-69
2023/05/10 08:27:58;;;;;;;0.93;0.93;;;;;;;11.70;78.88;96932.31;5049390;28;20041;-69
2023/05/10 08:30:26;;;;;;;0.43;0.43;;;;;;;11.77;78.50;96935.78;5052733;28;20098;-69
2023/05/10 08:32:59;;;;;;;0.50;0.50;;;;;;;11.72;78.05;96938.28;5053397;28;20432;-69
2023/05/10 08:35:27;;;;;;;0.50;0.50;;;;;;;11.84;79.39;96941.88;5052528;28;20167;-70
2023/05/10 08:37:56;;;;;;;0.65;0.65;;;;;;;11.87;78.20;96944.13;5049250;28;20549;-69
2023/05/10 08:40:25;;;;;;;0.55;0.55;;;;;;;11.87;79.28;96945.97;5051383;28;20049;-70
2023/05/10 08:42:56;;;;;;;0.88;0.88;;;;;;;11.88;79.98;96955.63;5048336;28;20045;-69
2023/05/10 08:45:24;;;;;;;0.70;0.70;;;;;;;11.97;79.75;96955.16;5050508;28;20568;-69
2023/05/10 08:47:53;;;;;;;0.60;0.60;;;;;;;11.92;79.57;96960.34;5054068;28;20136;-70
2023/05/10 08:50:21;;;;;;;0.50;0.50;;;;;;;11.87;79.82;96962.84;5048670;28;20107;-69
2023/05/10 08:52:54;;;;;;;0.60;0.60;;;;;;;11.94;81.25;96962.81;5053106;28;20124;-69
2023/05/10 08:55:24;;;;;;;;;;;;;;;11.85;80.48;96956.06;5047648;28;20041;-69
2023/05/10 08:57:51;;;;;;;0.65;0.65;;;;;;;11.86;79.98;96966.56;5047198;28;19955;-70
2023/05/10 09:00:20;;;;;;;0.60;0.60;;;;;;;11.92;81.44;96971.03;5046627;28;20048;-70
2023/05/10 09:02:50;;;;;;;0.60;0.60;;;;;;;11.89;79.84;96965.31;5051468;28;20037;-70
2023/05/10 09:05:17;;;;;;;0.60;0.60;;;;;;;11.87;80.39;96970.03;5051778;28;20124;-70
2023/05/10 09:07:46;;;;;;;0.70;0.70;;;;;;;11.88;81.01;96974.34;5049554;28;20563;-70
2023/05/10 09:10:14;;;;;;;0.50;0.50;;;;;;;11.79;81.22;96978.34;5051262;28;20037;-70
2023/05/10 09:12:45;;;;;;;0.52;0.52;;;;;;;11.82;81.16;96978.75;5045036;28;20049;-70
2023/05/10 09:15:14;;;;;;;1.00;1.00;;;;;;;11.77;82.42;96982.03;5051975;28;20036;-70
2023/05/10 09:17:43;;;;;;;0.47;0.47;;;;;;;11.82;82.40;96975.25;5045395;28;20072;-70
2023/05/10 09:20:11;;;;;;;0.25;0.25;;;;;;;11.88;82.68;96983.19;5052488;28;20408;-70
2023/05/10 09:22:38;;;;;;;0.68;0.68;;;;;;;11.86;82.68;96990.63;5043204;28;20045;-70
2023/05/10 09:25:07;;;;;;;0.50;0.50;;;;;;;11.93;82.94;96980.72;5044819;28;20041;-71
2023/05/10 09:27:35;;;;;;;0.60;0.60;;;;;;;11.88;82.30;96993.91;5041893;28;20048;-70
2023/05/10 09:30:06;;;;;;;0.60;0.60;;;;;;;11.94;82.92;96993.00;5048193;28;20055;-70
2023/05/10 09:32:38;;;;;;;0.57;0.57;;;;;;;11.98;83.35;96996.91;5052069;28;20040;-70
2023/05/10 09:35:09;;;;;;;0.50;0.50;;;;;;;11.98;82.81;96998.75;5049874;28;20044;-71
2023/05/10 09:37:37;;;;;;;0.63;0.63;;;;;;;12.03;83.07;97002.44;5052288;28;20098;-70
2023/05/10 09:40:08;;;;;;;0.20;0.20;;;;;;;12.03;83.19;97009.63;5050384;28;20610;-70
2023/05/10 09:42:36;;;;;;;0.40;0.40;;;;;;;12.03;83.81;97010.44;5043629;28;20049;-70
2023/05/10 09:45:06;;;;;;;0.52;0.52;;;;;;;11.96;83.60;97009.66;5049133;28;20048;-72
2023/05/10 09:47:34;;;;;;;0.60;0.60;;;;;;;12.01;83.51;97009.84;5051655;28;20041;-71
2023/05/10 09:50:04;;;;;;;0.35;0.35;;;;;;;11.99;83.71;97013.78;5048775;28;20033;-70
2023/05/10 09:52:32;;;;;;;0.65;0.65;;;;;;;12.10;84.47;97011.22;5050793;28;20102;-70
2023/05/10 09:55:00;;;;;;;0.65;0.65;;;;;;;12.06;83.03;97007.31;5047345;28;20044;-70
2023/05/10 09:57:27;;;;;;;0.52;0.52;;;;;;;12.13;83.62;97009.97;5036829;28;20098;-70
2023/05/10 09:59:57;;;;;;;0.63;0.63;;;;;;;12.15;83.09;97007.88;5043640;28;20100;-70
2023/05/10 10:02:30;;;;;;;0.50;0.50;;;;;;;12.09;83.80;97003.41;5050088;28;20045;-70
2023/05/10 10:04:58;;;;;;;0.70;0.70;;;;;;;12.10;83.96;97011.22;5051697;28;20048;-70
2023/05/10 10:07:27;;;;;;;0.10;0.10;;;;;;;12.13;83.77;97008.09;5047299;28;20424;-71
2023/05/10 10:09:54;;;;;;;0.50;0.50;;;;;;;12.18;84.14;97012.78;5051702;28;20106;-70
2023/05/10 10:12:22;;;;;;;0.52;0.52;;;;;;;12.30;84.46;97015.56;5046389;28;20052;-70
2023/05/10 10:14:50;;;;;;;0.40;0.40;;;;;;;12.37;84.50;97016.31;5046533;28;20056;-70
2023/05/10 10:17:18;;;;;;;0.57;0.57;;;;;;;12.33;84.20;97012.47;5047365;28;20045;-70
2023/05/10 10:19:47;;;;;;;0.47;0.47;;;;;;;12.36;84.29;97010.16;5050957;28;20040;-70
2023/05/10 10:22:15;;;;;;;0.63;0.63;;;;;;;12.38;83.96;97009.94;5051607;28;20548;-70
2023/05/10 10:24:42;;;;;;;0.55;0.55;;;;;;;12.38;84.74;97008.06;5047950;28;20049;-70
2023/05/10 10:27:22;;;;;;;0.73;0.73;;;;;;;12.48;85.17;97004.88;5052026;28;20052;-70
2023/05/10 10:29:57;;;;;;;0.50;0.50;;;;;;;12.44;83.92;97007.22;5047922;28;20041;-70
2023/05/10 10:32:28;;;;;;;0.73;0.73;;;;;;;12.52;86.05;97010.63;5053747;28;20071;-71
2023/05/10 10:34:57;;;;;;;0.77;0.77;;;;;;;12.58;84.21;97012.41;5044517;28;20053;-70
2023/05/10 10:37:42;;;;;;;0.80;0.80;;;;;;;12.57;84.18;96997.38;5045303;28;20049;-70
2023/05/10 10:40:23;;;;;;;;;;;;;;;12.70;84.24;97002.59;5049766;28;20462;-68
2023/05/10 10:42:51;;;;;;;0.73;0.73;;;;;;;12.75;84.90;97008.13;5042240;28;19925;-68
2023/05/10 10:45:18;;;;;;;0.65;0.65;;;;;;;12.82;83.93;97014.22;5048167;28;20049;-68
2023/05/10 10:47:46;;;;;;;0.40;0.40;;;;;;;12.90;84.29;97005.88;5051380;28;20045;-68
2023/05/10 10:50:16;;;;;;;0.52;0.52;;;;;;;12.93;83.63;97009.97;5047821;28;20037;-70
2023/05/10 10:52:44;;;;;;;0.43;0.43;;;;;;;12.93;83.53;97008.13;5044150;28;20045;-69
2023/05/10 10:55:13;;;;;;;0.40;0.40;;;;;;;12.97;84.47;97008.50;5046364;28;20072;-69
2023/05/10 10:57:46;;;;;;;0.52;0.52;;;;;;;13.05;84.75;97008.19;5049868;28;20056;-69
2023/05/10 11:00:25;;;;;;;0.63;0.63;;;;;;;13.14;84.11;97006.88;5042426;28;20136;-70
2023/05/10 11:02:54;;;;;;;0.50;0.50;;;;;;;13.27;84.16;97005.88;5046400;28;20056;-70
2023/05/10 11:05:43;;;;;;;0.45;0.45;;;;;;;13.35;83.08;97002.88;5047165;28;20053;-70
2023/05/10 11:08:13;;;;;;;0.68;0.68;;;;;;;13.38;83.29;97003.25;5050482;28;20127;-68
2023/05/10 11:10:41;;;;;;;0.10;0.10;;;;;;;13.33;82.86;97003.13;5043301;28;20448;-69
2023/05/10 11:13:10;;;;;;;0.80;0.80;;;;;;;13.36;83.52;97010.72;5047808;28;20095;-69
2023/05/10 11:15:39;;;;;;;0.73;0.73;;;;;;;13.30;82.54;96998.19;5047131;28;20050;-69
2023/05/10 11:18:19;;;;;;;0.65;0.65;;;;;;;13.37;82.78;97009.66;5047174;28;20063;-69
2023/05/10 11:20:52;;;;;;;0.10;0.10;;;;;;;13.45;82.03;97009.34;5044036;28;20477;-69
2023/05/10 11:23:21;;;;;;;0.60;0.60;;;;;;;13.51;82.29;97004.91;5045236;28;20095;-69
2023/05/10 11:25:49;;;;;;;0.47;0.47;;;;;;;13.52;82.40;97015.44;5049461;28;20120;-69
2023/05/10 11:28:18;;;;;;;0.50;0.50;;;;;;;13.57;82.05;97006.72;5037982;28;20045;-69
2023/05/10 11:30:46;;;;;;;0.60;0.60;;;;;;;13.65;81.58;97013.59;5041465;28;20049;-69
2023/05/10 11:33:19;;;;;;;0.52;0.52;;;;;;;13.71;81.76;97012.69;5040040;28;20115;-71
2023/05/10 11:35:47;;;;;;;0.40;0.40;;;;;;;13.72;81.91;97000.91;5047978;28;20037;-69
2023/05/10 11:38:16;;;;;;;0.55;0.55;;;;;;;13.83;81.23;97003.63;5052886;28;20531;-69
2023/05/10 11:40:44;;;;;;;0.20;0.20;;;;;;;14.00;80.93;97000.28;5049712;28;20443;-69
2023/05/10 11:43:12;;;;;;;0.70;0.70;;;;;;;14.16;80.85;96999.59;5051011;28;20041;-69